sensor_id;sensor_type;location;lat;lon;timestamp;P1;durP1;ratioP1;P2;durP2;ratioP2
57467;SDS011;43311;51.196;7.518;2023-07-16T00:00:10;4.07;;;1.23;;
57467;SDS011;43311;51.196;7.518;2023-07-16T00:02:36;1.95;;;1.17;;
57467;SDS011;43311;51.196;7.518;2023-07-16T00:05:03;3.10;;;1.58;;
57467;SDS011;43311;51.196;7.518;2023-07-16T00:07:29;3.92;;;1.13;;
57467;SDS011;43311;51.196;7.518;2023-07-16T00:09:54;2.75;;;1.20;;
57467;SDS011;43311;51.196;7.518;2023-07-16T00:12:19;3.15;;;1.30;;
57467;SDS011;43311;51.196;7.518;2023-07-16T00:14:45;2.75;;;1.27;;
57467;SDS011;43311;51.196;7.518;2023-07-16T00:17:10;3.20;;;1.40;;
57467;SDS011;43311;51.196;7.518;2023-07-16T00:19:36;3.17;;;1.35;;
57467;SDS011;43311;51.196;7.518;2023-07-16T00:22:02;3.15;;;1.40;;
57467;SDS011;43311;51.196;7.518;2023-07-16T00:24:27;2.47;;;1.50;;
57467;SDS011;43311;51.196;7.518;2023-07-16T00:26:52;2.30;;;1.13;;
57467;SDS011;43311;51.196;7.518;2023-07-16T00:29:18;2.10;;;1.30;;
57467;SDS011;43311;51.196;7.518;2023-07-16T00:31:43;2.60;;;1.23;;
57467;SDS011;43311;51.196;7.518;2023-07-16T00:34:09;5.47;;;1.20;;
57467;SDS011;43311;51.196;7.518;2023-07-16T00:36:35;3.92;;;1.23;;
57467;SDS011;43311;51.196;7.518;2023-07-16T00:39:00;4.93;;;1.40;;
57467;SDS011;43311;51.196;7.518;2023-07-16T00:41:26;4.03;;;1.48;;
57467;SDS011;43311;51.196;7.518;2023-07-16T00:43:51;4.85;;;1.30;;
57467;SDS011;43311;51.196;7.518;2023-07-16T00:46:19;1.60;;;1.07;;
57467;SDS011;43311;51.196;7.518;2023-07-16T00:48:44;3.35;;;1.23;;
57467;SDS011;43311;51.196;7.518;2023-07-16T00:51:10;4.90;;;1.83;;
57467;SDS011;43311;51.196;7.518;2023-07-16T00:53:35;3.22;;;1.50;;
57467;SDS011;43311;51.196;7.518;2023-07-16T00:56:01;3.03;;;1.20;;
57467;SDS011;43311;51.196;7.518;2023-07-16T00:58:26;4.32;;;1.27;;
57467;SDS011;43311;51.196;7.518;2023-07-16T01:00:54;2.92;;;1.27;;
57467;SDS011;43311;51.196;7.518;2023-07-16T01:03:19;3.75;;;1.42;;
57467;SDS011;43311;51.196;7.518;2023-07-16T01:08:10;2.00;;;1.20;;
57467;SDS011;43311;51.196;7.518;2023-07-16T01:10:40;5.88;;;1.40;;
57467;SDS011;43311;51.196;7.518;2023-07-16T01:13:06;3.03;;;1.70;;
57467;SDS011;43311;51.196;7.518;2023-07-16T01:15:32;7.93;;;1.42;;
57467;SDS011;43311;51.196;7.518;2023-07-16T01:17:58;2.33;;;1.30;;
57467;SDS011;43311;51.196;7.518;2023-07-16T01:20:25;2.85;;;1.40;;
57467;SDS011;43311;51.196;7.518;2023-07-16T01:31:48;6.97;;;1.67;;
57467;SDS011;43311;51.196;7.518;2023-07-16T01:34:16;5.60;;;1.55;;
57467;SDS011;43311;51.196;7.518;2023-07-16T01:36:43;4.60;;;1.50;;
57467;SDS011;43311;51.196;7.518;2023-07-16T01:39:09;5.30;;;1.60;;
57467;SDS011;43311;51.196;7.518;2023-07-16T01:41:35;3.60;;;1.30;;
57467;SDS011;43311;51.196;7.518;2023-07-16T01:44:00;4.15;;;1.23;;
57467;SDS011;43311;51.196;7.518;2023-07-16T01:46:26;3.75;;;1.75;;
57467;SDS011;43311;51.196;7.518;2023-07-16T01:48:51;5.22;;;1.67;;
57467;SDS011;43311;51.196;7.518;2023-07-16T01:51:17;3.67;;;1.45;;
57467;SDS011;43311;51.196;7.518;2023-07-16T01:53:43;5.05;;;1.40;;
57467;SDS011;43311;51.196;7.518;2023-07-16T01:56:08;4.55;;;1.20;;
57467;SDS011;43311;51.196;7.518;2023-07-16T01:58:33;3.80;;;1.45;;
57467;SDS011;43311;51.196;7.518;2023-07-16T02:00:59;7.60;;;2.22;;
57467;SDS011;43311;51.196;7.518;2023-07-16T02:03:24;4.95;;;1.60;;
57467;SDS011;43311;51.196;7.518;2023-07-16T02:05:50;4.38;;;1.60;;
57467;SDS011;43311;51.196;7.518;2023-07-16T02:08:16;7.80;;;1.88;;
57467;SDS011;43311;51.196;7.518;2023-07-16T02:10:43;5.32;;;1.48;;
57467;SDS011;43311;51.196;7.518;2023-07-16T02:13:10;1.38;;;1.08;;
57467;SDS011;43311;51.196;7.518;2023-07-16T02:15:35;4.28;;;1.60;;
57467;SDS011;43311;51.196;7.518;2023-07-16T02:18:01;7.38;;;1.60;;
57467;SDS011;43311;51.196;7.518;2023-07-16T02:20:29;3.50;;;1.30;;
57467;SDS011;43311;51.196;7.518;2023-07-16T02:22:55;4.45;;;1.42;;
57467;SDS011;43311;51.196;7.518;2023-07-16T02:25:21;1.60;;;1.33;;
57467;SDS011;43311;51.196;7.518;2023-07-16T02:27:46;5.65;;;1.40;;
57467;SDS011;43311;51.196;7.518;2023-07-16T02:30:13;7.60;;;1.20;;
57467;SDS011;43311;51.196;7.518;2023-07-16T02:32:42;7.72;;;1.52;;
57467;SDS011;43311;51.196;7.518;2023-07-16T02:35:07;5.53;;;1.30;;
57467;SDS011;43311;51.196;7.518;2023-07-16T02:37:33;2.22;;;1.30;;
57467;SDS011;43311;51.196;7.518;2023-07-16T02:39:59;4.85;;;1.83;;
57467;SDS011;43311;51.196;7.518;2023-07-16T02:42:24;4.90;;;2.15;;
57467;SDS011;43311;51.196;7.518;2023-07-16T02:44:50;4.60;;;1.10;;
57467;SDS011;43311;51.196;7.518;2023-07-16T02:47:17;4.35;;;1.42;;
57467;SDS011;43311;51.196;7.518;2023-07-16T02:49:42;2.10;;;1.00;;
57467;SDS011;43311;51.196;7.518;2023-07-16T02:52:08;3.50;;;1.35;;
57467;SDS011;43311;51.196;7.518;2023-07-16T02:54:34;3.13;;;1.42;;
57467;SDS011;43311;51.196;7.518;2023-07-16T02:57:00;4.82;;;1.48;;
57467;SDS011;43311;51.196;7.518;2023-07-16T02:59:26;6.65;;;1.52;;
57467;SDS011;43311;51.196;7.518;2023-07-16T03:01:51;4.13;;;1.27;;
57467;SDS011;43311;51.196;7.518;2023-07-16T03:04:16;3.30;;;1.30;;
57467;SDS011;43311;51.196;7.518;2023-07-16T03:06:42;3.60;;;1.40;;
57467;SDS011;43311;51.196;7.518;2023-07-16T03:09:07;3.35;;;1.45;;
57467;SDS011;43311;51.196;7.518;2023-07-16T03:11:33;4.22;;;1.30;;
57467;SDS011;43311;51.196;7.518;2023-07-16T03:13:58;3.47;;;1.40;;
57467;SDS011;43311;51.196;7.518;2023-07-16T03:16:23;6.38;;;1.55;;
57467;SDS011;43311;51.196;7.518;2023-07-16T03:18:49;3.67;;;1.50;;
57467;SDS011;43311;51.196;7.518;2023-07-16T03:21:14;4.82;;;1.30;;
57467;SDS011;43311;51.196;7.518;2023-07-16T03:23:40;5.47;;;1.40;;
57467;SDS011;43311;51.196;7.518;2023-07-16T03:26:05;4.93;;;1.38;;
57467;SDS011;43311;51.196;7.518;2023-07-16T03:28:32;3.63;;;1.40;;
57467;SDS011;43311;51.196;7.518;2023-07-16T03:30:59;5.60;;;1.45;;
57467;SDS011;43311;51.196;7.518;2023-07-16T03:33:25;2.15;;;1.15;;
57467;SDS011;43311;51.196;7.518;2023-07-16T03:35:51;4.63;;;1.40;;
57467;SDS011;43311;51.196;7.518;2023-07-16T03:38:18;2.83;;;1.17;;
57467;SDS011;43311;51.196;7.518;2023-07-16T03:40:45;4.38;;;1.42;;
57467;SDS011;43311;51.196;7.518;2023-07-16T03:43:12;4.95;;;1.33;;
57467;SDS011;43311;51.196;7.518;2023-07-16T03:45:38;4.70;;;1.17;;
57467;SDS011;43311;51.196;7.518;2023-07-16T03:48:04;5.75;;;1.40;;
57467;SDS011;43311;51.196;7.518;2023-07-16T03:50:29;3.95;;;1.30;;
57467;SDS011;43311;51.196;7.518;2023-07-16T03:52:55;5.03;;;1.35;;
57467;SDS011;43311;51.196;7.518;2023-07-16T03:55:20;4.60;;;1.70;;
57467;SDS011;43311;51.196;7.518;2023-07-16T03:57:46;5.93;;;1.50;;
57467;SDS011;43311;51.196;7.518;2023-07-16T04:00:12;4.88;;;1.50;;
57467;SDS011;43311;51.196;7.518;2023-07-16T04:02:41;6.35;;;1.60;;
57467;SDS011;43311;51.196;7.518;2023-07-16T04:05:11;6.10;;;1.85;;
57467;SDS011;43311;51.196;7.518;2023-07-16T04:07:36;6.45;;;2.03;;
57467;SDS011;43311;51.196;7.518;2023-07-16T04:10:03;4.28;;;1.30;;
57467;SDS011;43311;51.196;7.518;2023-07-16T04:12:29;5.22;;;1.38;;
57467;SDS011;43311;51.196;7.518;2023-07-16T04:14:56;4.32;;;1.77;;
57467;SDS011;43311;51.196;7.518;2023-07-16T04:17:22;7.68;;;1.70;;
57467;SDS011;43311;51.196;7.518;2023-07-16T04:19:47;3.35;;;1.55;;
57467;SDS011;43311;51.196;7.518;2023-07-16T04:22:13;5.40;;;2.00;;
57467;SDS011;43311;51.196;7.518;2023-07-16T04:24:38;6.78;;;1.48;;
57467;SDS011;43311;51.196;7.518;2023-07-16T04:27:04;7.90;;;1.90;;
57467;SDS011;43311;51.196;7.518;2023-07-16T04:29:29;8.73;;;1.65;;
57467;SDS011;43311;51.196;7.518;2023-07-16T04:31:55;5.47;;;1.60;;
57467;SDS011;43311;51.196;7.518;2023-07-16T04:34:20;3.65;;;1.30;;
57467;SDS011;43311;51.196;7.518;2023-07-16T04:36:45;5.15;;;1.52;;
57467;SDS011;43311;51.196;7.518;2023-07-16T04:39:11;4.82;;;1.63;;
57467;SDS011;43311;51.196;7.518;2023-07-16T04:41:36;5.75;;;1.85;;
57467;SDS011;43311;51.196;7.518;2023-07-16T04:44:02;3.92;;;1.80;;
57467;SDS011;43311;51.196;7.518;2023-07-16T04:46:28;7.57;;;1.95;;
57467;SDS011;43311;51.196;7.518;2023-07-16T04:48:55;5.10;;;1.83;;
57467;SDS011;43311;51.196;7.518;2023-07-16T04:51:21;4.65;;;1.67;;
57467;SDS011;43311;51.196;7.518;2023-07-16T04:53:48;3.70;;;1.40;;
57467;SDS011;43311;51.196;7.518;2023-07-16T04:56:13;4.88;;;1.48;;
57467;SDS011;43311;51.196;7.518;2023-07-16T04:58:40;7.07;;;2.25;;
57467;SDS011;43311;51.196;7.518;2023-07-16T05:01:07;6.22;;;1.50;;
57467;SDS011;43311;51.196;7.518;2023-07-16T05:03:33;5.07;;;2.00;;
57467;SDS011;43311;51.196;7.518;2023-07-16T05:06:00;6.40;;;1.77;;
57467;SDS011;43311;51.196;7.518;2023-07-16T05:08:25;4.97;;;1.73;;
57467;SDS011;43311;51.196;7.518;2023-07-16T05:10:51;6.95;;;2.55;;
57467;SDS011;43311;51.196;7.518;2023-07-16T05:13:16;6.95;;;1.60;;
57467;SDS011;43311;51.196;7.518;2023-07-16T05:15:43;6.15;;;2.35;;
57467;SDS011;43311;51.196;7.518;2023-07-16T05:18:09;5.88;;;1.60;;
57467;SDS011;43311;51.196;7.518;2023-07-16T05:20:34;5.63;;;1.38;;
57467;SDS011;43311;51.196;7.518;2023-07-16T05:22:59;4.68;;;1.67;;
57467;SDS011;43311;51.196;7.518;2023-07-16T05:25:25;5.03;;;1.73;;
57467;SDS011;43311;51.196;7.518;2023-07-16T05:27:50;5.70;;;3.10;;
57467;SDS011;43311;51.196;7.518;2023-07-16T05:30:16;3.78;;;1.75;;
57467;SDS011;43311;51.196;7.518;2023-07-16T05:32:41;8.38;;;1.80;;
57467;SDS011;43311;51.196;7.518;2023-07-16T05:35:07;5.32;;;1.65;;
57467;SDS011;43311;51.196;7.518;2023-07-16T05:37:32;3.67;;;1.60;;
57467;SDS011;43311;51.196;7.518;2023-07-16T05:39:58;8.73;;;1.63;;
57467;SDS011;43311;51.196;7.518;2023-07-16T05:42:23;5.97;;;1.92;;
57467;SDS011;43311;51.196;7.518;2023-07-16T05:44:49;5.15;;;1.88;;
57467;SDS011;43311;51.196;7.518;2023-07-16T05:47:14;7.95;;;2.08;;
57467;SDS011;43311;51.196;7.518;2023-07-16T05:49:39;7.30;;;1.80;;
57467;SDS011;43311;51.196;7.518;2023-07-16T05:52:05;5.22;;;1.95;;
57467;SDS011;43311;51.196;7.518;2023-07-16T05:54:31;5.55;;;1.70;;
57467;SDS011;43311;51.196;7.518;2023-07-16T05:56:56;5.78;;;2.05;;
57467;SDS011;43311;51.196;7.518;2023-07-16T05:59:22;6.20;;;1.90;;
57467;SDS011;43311;51.196;7.518;2023-07-16T06:01:47;7.85;;;2.42;;
57467;SDS011;43311;51.196;7.518;2023-07-16T06:04:13;8.68;;;2.17;;
57467;SDS011;43311;51.196;7.518;2023-07-16T06:06:38;8.43;;;2.15;;
57467;SDS011;43311;51.196;7.518;2023-07-16T06:09:04;7.53;;;2.20;;
57467;SDS011;43311;51.196;7.518;2023-07-16T06:11:29;6.05;;;2.00;;
57467;SDS011;43311;51.196;7.518;2023-07-16T06:13:55;4.93;;;1.90;;
57467;SDS011;43311;51.196;7.518;2023-07-16T06:16:20;7.45;;;1.95;;
57467;SDS011;43311;51.196;7.518;2023-07-16T06:18:46;7.18;;;2.22;;
57467;SDS011;43311;51.196;7.518;2023-07-16T06:21:13;5.25;;;2.13;;
57467;SDS011;43311;51.196;7.518;2023-07-16T06:23:38;7.72;;;2.50;;
57467;SDS011;43311;51.196;7.518;2023-07-16T06:26:05;7.25;;;2.17;;
57467;SDS011;43311;51.196;7.518;2023-07-16T06:28:30;7.57;;;2.95;;
57467;SDS011;43311;51.196;7.518;2023-07-16T06:30:56;7.75;;;2.00;;
57467;SDS011;43311;51.196;7.518;2023-07-16T06:33:21;9.93;;;2.60;;
57467;SDS011;43311;51.196;7.518;2023-07-16T06:35:47;6.28;;;2.33;;
57467;SDS011;43311;51.196;7.518;2023-07-16T06:38:13;7.25;;;2.75;;
57467;SDS011;43311;51.196;7.518;2023-07-16T06:40:40;4.97;;;2.30;;
57467;SDS011;43311;51.196;7.518;2023-07-16T06:43:12;7.88;;;3.22;;
57467;SDS011;43311;51.196;7.518;2023-07-16T06:45:38;8.00;;;3.40;;
57467;SDS011;43311;51.196;7.518;2023-07-16T06:48:03;7.30;;;2.90;;
57467;SDS011;43311;51.196;7.518;2023-07-16T06:50:29;11.43;;;4.35;;
57467;SDS011;43311;51.196;7.518;2023-07-16T06:52:55;8.02;;;2.80;;
57467;SDS011;43311;51.196;7.518;2023-07-16T06:55:20;8.07;;;3.15;;
57467;SDS011;43311;51.196;7.518;2023-07-16T06:57:46;8.25;;;2.90;;
57467;SDS011;43311;51.196;7.518;2023-07-16T07:00:11;5.40;;;2.83;;
57467;SDS011;43311;51.196;7.518;2023-07-16T07:02:37;6.00;;;2.92;;
57467;SDS011;43311;51.196;7.518;2023-07-16T07:05:02;6.82;;;2.60;;
57467;SDS011;43311;51.196;7.518;2023-07-16T07:07:28;6.57;;;3.38;;
57467;SDS011;43311;51.196;7.518;2023-07-16T07:09:54;9.38;;;2.95;;
57467;SDS011;43311;51.196;7.518;2023-07-16T07:12:20;7.28;;;2.75;;
57467;SDS011;43311;51.196;7.518;2023-07-16T07:14:46;7.78;;;2.65;;
57467;SDS011;43311;51.196;7.518;2023-07-16T07:17:12;13.85;;;3.58;;
57467;SDS011;43311;51.196;7.518;2023-07-16T07:19:38;8.27;;;3.83;;
57467;SDS011;43311;51.196;7.518;2023-07-16T07:22:03;11.02;;;3.40;;
57467;SDS011;43311;51.196;7.518;2023-07-16T07:24:29;8.68;;;4.15;;
57467;SDS011;43311;51.196;7.518;2023-07-16T07:26:54;7.75;;;3.75;;
57467;SDS011;43311;51.196;7.518;2023-07-16T07:29:20;6.82;;;3.88;;
57467;SDS011;43311;51.196;7.518;2023-07-16T07:31:45;8.55;;;3.30;;
57467;SDS011;43311;51.196;7.518;2023-07-16T07:34:10;7.38;;;3.45;;
57467;SDS011;43311;51.196;7.518;2023-07-16T07:36:36;8.95;;;3.30;;
57467;SDS011;43311;51.196;7.518;2023-07-16T07:39:01;6.25;;;3.17;;
57467;SDS011;43311;51.196;7.518;2023-07-16T07:41:27;6.50;;;3.55;;
57467;SDS011;43311;51.196;7.518;2023-07-16T07:43:52;8.10;;;3.15;;
57467;SDS011;43311;51.196;7.518;2023-07-16T07:46:17;8.05;;;3.28;;
57467;SDS011;43311;51.196;7.518;2023-07-16T07:48:43;9.45;;;4.05;;
57467;SDS011;43311;51.196;7.518;2023-07-16T07:51:08;7.93;;;3.47;;
57467;SDS011;43311;51.196;7.518;2023-07-16T07:53:34;8.30;;;3.22;;
57467;SDS011;43311;51.196;7.518;2023-07-16T07:55:59;10.77;;;3.35;;
57467;SDS011;43311;51.196;7.518;2023-07-16T07:58:25;9.68;;;3.85;;
57467;SDS011;43311;51.196;7.518;2023-07-16T08:00:50;11.38;;;3.90;;
57467;SDS011;43311;51.196;7.518;2023-07-16T08:03:16;5.40;;;3.13;;
57467;SDS011;43311;51.196;7.518;2023-07-16T08:05:41;11.95;;;4.22;;
57467;SDS011;43311;51.196;7.518;2023-07-16T08:08:07;5.53;;;3.50;;
57467;SDS011;43311;51.196;7.518;2023-07-16T08:10:32;7.55;;;3.60;;
57467;SDS011;43311;51.196;7.518;2023-07-16T08:12:58;9.07;;;3.80;;
57467;SDS011;43311;51.196;7.518;2023-07-16T08:15:24;8.10;;;3.40;;
57467;SDS011;43311;51.196;7.518;2023-07-16T08:17:49;7.15;;;3.35;;
57467;SDS011;43311;51.196;7.518;2023-07-16T08:20:14;9.60;;;3.45;;
57467;SDS011;43311;51.196;7.518;2023-07-16T08:22:40;12.00;;;3.58;;
57467;SDS011;43311;51.196;7.518;2023-07-16T08:25:06;6.95;;;3.17;;
57467;SDS011;43311;51.196;7.518;2023-07-16T08:27:32;7.55;;;3.50;;
57467;SDS011;43311;51.196;7.518;2023-07-16T08:29:57;7.22;;;3.30;;
57467;SDS011;43311;51.196;7.518;2023-07-16T08:32:23;7.95;;;3.60;;
57467;SDS011;43311;51.196;7.518;2023-07-16T08:34:49;6.70;;;3.17;;
57467;SDS011;43311;51.196;7.518;2023-07-16T08:37:15;10.43;;;3.85;;
57467;SDS011;43311;51.196;7.518;2023-07-16T08:39:40;6.47;;;3.45;;
57467;SDS011;43311;51.196;7.518;2023-07-16T08:42:06;7.28;;;3.38;;
57467;SDS011;43311;51.196;7.518;2023-07-16T08:44:35;7.90;;;3.78;;
57467;SDS011;43311;51.196;7.518;2023-07-16T08:47:02;9.07;;;3.67;;
57467;SDS011;43311;51.196;7.518;2023-07-16T08:49:28;5.57;;;3.50;;
57467;SDS011;43311;51.196;7.518;2023-07-16T08:51:55;5.43;;;3.35;;
57467;SDS011;43311;51.196;7.518;2023-07-16T08:54:22;9.98;;;3.35;;
57467;SDS011;43311;51.196;7.518;2023-07-16T08:56:49;8.32;;;3.53;;
57467;SDS011;43311;51.196;7.518;2023-07-16T08:59:15;7.25;;;3.42;;
57467;SDS011;43311;51.196;7.518;2023-07-16T09:01:40;7.63;;;3.58;;
57467;SDS011;43311;51.196;7.518;2023-07-16T09:04:06;5.95;;;3.30;;
57467;SDS011;43311;51.196;7.518;2023-07-16T09:06:31;7.18;;;3.03;;
57467;SDS011;43311;51.196;7.518;2023-07-16T09:08:57;10.82;;;4.15;;
57467;SDS011;43311;51.196;7.518;2023-07-16T09:11:22;8.82;;;3.35;;
57467;SDS011;43311;51.196;7.518;2023-07-16T09:13:48;5.47;;;3.30;;
57467;SDS011;43311;51.196;7.518;2023-07-16T09:16:14;7.25;;;3.55;;
57467;SDS011;43311;51.196;7.518;2023-07-16T09:18:43;12.25;;;3.58;;
57467;SDS011;43311;51.196;7.518;2023-07-16T09:21:08;7.07;;;3.53;;
57467;SDS011;43311;51.196;7.518;2023-07-16T09:23:35;6.25;;;3.30;;
57467;SDS011;43311;51.196;7.518;2023-07-16T09:26:00;6.57;;;3.88;;
57467;SDS011;43311;51.196;7.518;2023-07-16T09:28:29;9.75;;;3.80;;
57467;SDS011;43311;51.196;7.518;2023-07-16T09:30:55;7.55;;;4.25;;
57467;SDS011;43311;51.196;7.518;2023-07-16T09:33:21;4.97;;;3.42;;
57467;SDS011;43311;51.196;7.518;2023-07-16T09:35:51;8.90;;;3.72;;
57467;SDS011;43311;51.196;7.518;2023-07-16T09:38:16;6.05;;;3.47;;
57467;SDS011;43311;51.196;7.518;2023-07-16T09:40:43;8.48;;;3.90;;
57467;SDS011;43311;51.196;7.518;2023-07-16T09:43:11;6.70;;;3.50;;
57467;SDS011;43311;51.196;7.518;2023-07-16T09:45:37;8.07;;;4.03;;
57467;SDS011;43311;51.196;7.518;2023-07-16T09:48:04;7.05;;;4.22;;
57467;SDS011;43311;51.196;7.518;2023-07-16T09:50:33;7.28;;;3.55;;
57467;SDS011;43311;51.196;7.518;2023-07-16T09:53:00;6.65;;;3.90;;
57467;SDS011;43311;51.196;7.518;2023-07-16T09:55:27;9.05;;;4.47;;
57467;SDS011;43311;51.196;7.518;2023-07-16T09:57:57;9.60;;;3.97;;
57467;SDS011;43311;51.196;7.518;2023-07-16T10:00:24;7.85;;;4.28;;
57467;SDS011;43311;51.196;7.518;2023-07-16T10:02:52;10.32;;;4.53;;
57467;SDS011;43311;51.196;7.518;2023-07-16T10:05:19;10.27;;;4.50;;
57467;SDS011;43311;51.196;7.518;2023-07-16T10:07:53;8.20;;;4.22;;
57467;SDS011;43311;51.196;7.518;2023-07-16T10:10:20;9.52;;;4.75;;
57467;SDS011;43311;51.196;7.518;2023-07-16T10:12:55;6.63;;;3.70;;
57467;SDS011;43311;51.196;7.518;2023-07-16T10:15:28;8.27;;;4.18;;
57467;SDS011;43311;51.196;7.518;2023-07-16T10:17:57;7.38;;;3.67;;
57467;SDS011;43311;51.196;7.518;2023-07-16T10:20:35;7.05;;;3.58;;
57467;SDS011;43311;51.196;7.518;2023-07-16T10:23:14;5.57;;;3.05;;
57467;SDS011;43311;51.196;7.518;2023-07-16T10:25:40;6.70;;;3.53;;
57467;SDS011;43311;51.196;7.518;2023-07-16T10:28:31;9.23;;;3.35;;
57467;SDS011;43311;51.196;7.518;2023-07-16T10:30:57;6.93;;;2.63;;
57467;SDS011;43311;51.196;7.518;2023-07-16T10:33:23;6.75;;;3.42;;
57467;SDS011;43311;51.196;7.518;2023-07-16T10:35:48;3.95;;;2.63;;
57467;SDS011;43311;51.196;7.518;2023-07-16T10:38:14;6.85;;;3.10;;
57467;SDS011;43311;51.196;7.518;2023-07-16T10:40:43;5.35;;;3.05;;
57467;SDS011;43311;51.196;7.518;2023-07-16T10:43:09;5.00;;;2.95;;
57467;SDS011;43311;51.196;7.518;2023-07-16T10:45:35;4.32;;;2.25;;
57467;SDS011;43311;51.196;7.518;2023-07-16T10:48:01;8.30;;;2.65;;
57467;SDS011;43311;51.196;7.518;2023-07-16T10:50:27;5.53;;;2.45;;
57467;SDS011;43311;51.196;7.518;2023-07-16T10:52:53;4.90;;;2.53;;
57467;SDS011;43311;51.196;7.518;2023-07-16T10:55:19;5.13;;;2.70;;
57467;SDS011;43311;51.196;7.518;2023-07-16T10:57:48;5.57;;;2.50;;
57467;SDS011;43311;51.196;7.518;2023-07-16T11:00:15;4.93;;;2.63;;
57467;SDS011;43311;51.196;7.518;2023-07-16T11:02:42;4.90;;;2.40;;
57467;SDS011;43311;51.196;7.518;2023-07-16T11:05:15;4.88;;;2.35;;
57467;SDS011;43311;51.196;7.518;2023-07-16T11:07:44;7.88;;;2.88;;
57467;SDS011;43311;51.196;7.518;2023-07-16T11:10:17;5.05;;;2.38;;
57467;SDS011;43311;51.196;7.518;2023-07-16T11:12:43;6.57;;;2.60;;
57467;SDS011;43311;51.196;7.518;2023-07-16T11:15:09;4.80;;;2.60;;
57467;SDS011;43311;51.196;7.518;2023-07-16T11:17:37;6.78;;;2.85;;
57467;SDS011;43311;51.196;7.518;2023-07-16T11:20:03;5.78;;;2.58;;
57467;SDS011;43311;51.196;7.518;2023-07-16T11:22:32;6.25;;;2.17;;
57467;SDS011;43311;51.196;7.518;2023-07-16T11:24:58;4.55;;;2.67;;
57467;SDS011;43311;51.196;7.518;2023-07-16T11:27:24;7.80;;;3.08;;
57467;SDS011;43311;51.196;7.518;2023-07-16T11:29:52;5.38;;;2.28;;
57467;SDS011;43311;51.196;7.518;2023-07-16T11:32:25;6.82;;;2.33;;
57467;SDS011;43311;51.196;7.518;2023-07-16T11:34:52;4.97;;;2.35;;
57467;SDS011;43311;51.196;7.518;2023-07-16T11:37:19;5.22;;;2.53;;
57467;SDS011;43311;51.196;7.518;2023-07-16T11:39:46;7.72;;;2.58;;
57467;SDS011;43311;51.196;7.518;2023-07-16T11:42:12;6.28;;;2.83;;
57467;SDS011;43311;51.196;7.518;2023-07-16T11:44:37;5.72;;;3.05;;
57467;SDS011;43311;51.196;7.518;2023-07-16T11:47:03;8.15;;;3.40;;
57467;SDS011;43311;51.196;7.518;2023-07-16T11:49:29;7.63;;;2.65;;
57467;SDS011;43311;51.196;7.518;2023-07-16T11:51:56;6.63;;;2.00;;
57467;SDS011;43311;51.196;7.518;2023-07-16T11:54:23;4.85;;;2.75;;
57467;SDS011;43311;51.196;7.518;2023-07-16T11:56:49;4.72;;;2.38;;
57467;SDS011;43311;51.196;7.518;2023-07-16T11:59:15;5.18;;;2.65;;
57467;SDS011;43311;51.196;7.518;2023-07-16T12:01:45;4.82;;;2.60;;
57467;SDS011;43311;51.196;7.518;2023-07-16T12:04:15;5.65;;;2.90;;
57467;SDS011;43311;51.196;7.518;2023-07-16T12:06:41;5.78;;;2.92;;
57467;SDS011;43311;51.196;7.518;2023-07-16T12:09:07;3.63;;;2.08;;
57467;SDS011;43311;51.196;7.518;2023-07-16T12:11:32;6.63;;;2.60;;
57467;SDS011;43311;51.196;7.518;2023-07-16T12:13:57;7.60;;;2.20;;
57467;SDS011;43311;51.196;7.518;2023-07-16T12:16:23;3.70;;;2.25;;
57467;SDS011;43311;51.196;7.518;2023-07-16T12:18:48;4.72;;;2.13;;
57467;SDS011;43311;51.196;7.518;2023-07-16T12:21:14;4.75;;;2.22;;
57467;SDS011;43311;51.196;7.518;2023-07-16T12:23:39;5.30;;;2.60;;
57467;SDS011;43311;51.196;7.518;2023-07-16T12:26:05;7.40;;;2.47;;
57467;SDS011;43311;51.196;7.518;2023-07-16T12:28:30;6.40;;;3.05;;
57467;SDS011;43311;51.196;7.518;2023-07-16T12:30:55;5.55;;;2.58;;
57467;SDS011;43311;51.196;7.518;2023-07-16T12:33:21;4.38;;;2.08;;
57467;SDS011;43311;51.196;7.518;2023-07-16T12:35:46;6.53;;;2.63;;
57467;SDS011;43311;51.196;7.518;2023-07-16T12:38:12;4.80;;;2.65;;
57467;SDS011;43311;51.196;7.518;2023-07-16T12:40:37;7.28;;;2.50;;
57467;SDS011;43311;51.196;7.518;2023-07-16T12:43:06;4.43;;;2.40;;
57467;SDS011;43311;51.196;7.518;2023-07-16T12:45:32;3.05;;;2.08;;
57467;SDS011;43311;51.196;7.518;2023-07-16T12:47:57;5.78;;;2.63;;
57467;SDS011;43311;51.196;7.518;2023-07-16T12:50:23;4.28;;;2.40;;
57467;SDS011;43311;51.196;7.518;2023-07-16T12:52:50;4.33;;;2.10;;
57467;SDS011;43311;51.196;7.518;2023-07-16T12:55:17;5.63;;;2.17;;
57467;SDS011;43311;51.196;7.518;2023-07-16T12:57:42;5.40;;;2.25;;
57467;SDS011;43311;51.196;7.518;2023-07-16T13:00:08;6.47;;;2.45;;
57467;SDS011;43311;51.196;7.518;2023-07-16T13:02:35;3.85;;;2.15;;
57467;SDS011;43311;51.196;7.518;2023-07-16T13:05:01;5.55;;;2.08;;
57467;SDS011;43311;51.196;7.518;2023-07-16T13:07:26;5.70;;;2.17;;
57467;SDS011;43311;51.196;7.518;2023-07-16T13:09:52;4.90;;;2.13;;
57467;SDS011;43311;51.196;7.518;2023-07-16T13:12:17;6.80;;;2.28;;
57467;SDS011;43311;51.196;7.518;2023-07-16T13:14:42;4.80;;;2.28;;
57467;SDS011;43311;51.196;7.518;2023-07-16T13:17:08;5.95;;;2.95;;
57467;SDS011;43311;51.196;7.518;2023-07-16T13:19:34;4.80;;;2.05;;
57467;SDS011;43311;51.196;7.518;2023-07-16T13:21:59;5.45;;;2.60;;
57467;SDS011;43311;51.196;7.518;2023-07-16T13:24:25;3.47;;;2.33;;
57467;SDS011;43311;51.196;7.518;2023-07-16T13:26:50;6.82;;;2.35;;
57467;SDS011;43311;51.196;7.518;2023-07-16T13:29:16;4.68;;;2.38;;
57467;SDS011;43311;51.196;7.518;2023-07-16T13:31:41;4.20;;;2.30;;
57467;SDS011;43311;51.196;7.518;2023-07-16T13:34:07;5.32;;;2.50;;
57467;SDS011;43311;51.196;7.518;2023-07-16T13:36:32;4.47;;;2.42;;
57467;SDS011;43311;51.196;7.518;2023-07-16T13:38:57;4.13;;;2.33;;
57467;SDS011;43311;51.196;7.518;2023-07-16T13:41:23;4.40;;;2.38;;
57467;SDS011;43311;51.196;7.518;2023-07-16T13:43:48;4.78;;;2.72;;
57467;SDS011;43311;51.196;7.518;2023-07-16T13:46:14;5.05;;;2.60;;
57467;SDS011;43311;51.196;7.518;2023-07-16T13:48:40;5.85;;;2.25;;
57467;SDS011;43311;51.196;7.518;2023-07-16T13:51:07;6.15;;;2.58;;
57467;SDS011;43311;51.196;7.518;2023-07-16T13:53:33;6.07;;;2.53;;
57467;SDS011;43311;51.196;7.518;2023-07-16T13:55:58;6.22;;;2.72;;
57467;SDS011;43311;51.196;7.518;2023-07-16T13:58:24;6.88;;;2.55;;
57467;SDS011;43311;51.196;7.518;2023-07-16T14:00:49;6.03;;;2.72;;
57467;SDS011;43311;51.196;7.518;2023-07-16T14:03:14;6.47;;;2.85;;
57467;SDS011;43311;51.196;7.518;2023-07-16T14:05:40;3.47;;;2.50;;
57467;SDS011;43311;51.196;7.518;2023-07-16T14:08:05;5.07;;;2.83;;
57467;SDS011;43311;51.196;7.518;2023-07-16T14:10:31;5.68;;;2.55;;
57467;SDS011;43311;51.196;7.518;2023-07-16T14:12:57;5.53;;;2.90;;
57467;SDS011;43311;51.196;7.518;2023-07-16T14:15:22;7.07;;;2.90;;
57467;SDS011;43311;51.196;7.518;2023-07-16T14:17:48;6.72;;;2.85;;
57467;SDS011;43311;51.196;7.518;2023-07-16T14:20:14;6.03;;;2.65;;
57467;SDS011;43311;51.196;7.518;2023-07-16T14:22:40;6.05;;;2.67;;
57467;SDS011;43311;51.196;7.518;2023-07-16T14:25:05;5.75;;;2.70;;
57467;SDS011;43311;51.196;7.518;2023-07-16T14:27:31;6.07;;;2.55;;
57467;SDS011;43311;51.196;7.518;2023-07-16T14:29:58;6.32;;;2.75;;
57467;SDS011;43311;51.196;7.518;2023-07-16T14:32:23;5.60;;;2.72;;
57467;SDS011;43311;51.196;7.518;2023-07-16T14:34:49;5.85;;;2.80;;
57467;SDS011;43311;51.196;7.518;2023-07-16T14:37:15;5.22;;;2.95;;
57467;SDS011;43311;51.196;7.518;2023-07-16T14:39:40;6.63;;;2.65;;
57467;SDS011;43311;51.196;7.518;2023-07-16T14:42:05;5.63;;;2.88;;
57467;SDS011;43311;51.196;7.518;2023-07-16T14:44:31;5.88;;;3.13;;
57467;SDS011;43311;51.196;7.518;2023-07-16T14:46:57;4.90;;;3.30;;
57467;SDS011;43311;51.196;7.518;2023-07-16T14:49:23;6.72;;;3.15;;
57467;SDS011;43311;51.196;7.518;2023-07-16T14:51:48;4.80;;;2.58;;